Edwards, CO (81632)

11:35 AM MDT on September 19, 2014 (GMT -0600)
WildRidge - Neighborhood | Change Station
CLOSE
Current Station
Personal Weather Station
Location: Avon, CO
Elevation: 8156 ft
Nearby Weather Stations

Elev 8156 ft 39.66 °N, 106.55 °W | Updated 11 seconds ago

Clear
Clear
69.2 °F
Feels Like 69.2 °F
N
2.0
Wind Variable Wind from SSE
Gusts 5.0 mph

Today
High -- | Low -- °F
--% Chance of Precip.
Yesterday
High -- | Low -- °F
Precip. -- in
6:51 AM 7:08 PM
Waning Crescent, 18% visible
Pressure 30.22 in
Visibility 10.0 miles
Clouds Few 12000 ft
Dew Point 41 °F
Humidity 36%
Rainfall 0.00 in
Snow Depth 1 in , 187 in , 0 in
UV 4 out of 12
Pollen 7.50 out of 12
Air Quality Not available.
Flu Activity Not available.
METAR KEGE 191550Z 00000KT 10SM FEW120 15/04 A3022

More Conditions Fewer Conditions

Pressure 30.22 in
Visibility 10.0 miles
Clouds Few 12000 ft
Dew Point 41 °F
Humidity 36%
Rainfall 0.00 in
Snow Depth 1 in , 187 in , 0 in
UV 4 out of 12
Pollen 7.50 out of 12
Air Quality Not available.
Flu Activity Not available.
METAR KEGE 191550Z 00000KT 10SM FEW120 15/04 A3022

More Conditions Fewer Conditions

10-Day Weather Forecast

Almanac

Astronomy

Sep. 19, 2014 Rise Set
Actual Time 6:51 AM MDT 7:08 PM MDT
Civil Twilight 6:24 AM MDT 7:35 PM MDT
Nautical Twilight 5:52 AM MDT 8:06 PM MDT
Astronomical Twilight 5:20 AM MDT 8:38 PM MDT
Moon 2:39 AM MDT 4:38 PM MDT
Length of Visible Light 13h 10m
Length of Day
12h 17m
Tomorrow will be 2m 34s shorter.
Waning Crescent, 18% of the Moon is Illuminated
Today
Waning Crescent
Sep 24
New
Oct 1
First Quarter
Oct 8
Full
Oct 15
Last Quarter

Today's Extremes

State Highs State Lows

Community

WunderPhotos

Upload Photos

1,754,663 photos uploaded!

Nearby

Snow Depth

Station Depth Elevation
Lone Cone 1 in 9600 ft
Independence Pass 187 in 10600 ft
Red Mountain Pass 0 in 11150 ft
Beaver Divide 0 in 8280 ft
Wolf Creek Summit 0 in 11000 ft

Earthquake Activity

City Distance Mag. Time & Date
No recent earthquake activity has been reported nearby.
Minimum magnitude displayed is 2.5.

Coastal Water Temperatures

Place Temperature
No Stations Reporting

Nearby Weather Stations